createdAt,value
2019-04-16T00:02:36.451Z,28.13
2019-04-16T00:05:27.729Z,26.57
2019-04-16T00:08:26.531Z,26.33
2019-04-16T00:10:55.682Z,24.43
2019-04-16T00:13:29.410Z,25.30
2019-04-16T00:16:01.454Z,24.13
2019-04-16T00:18:31.513Z,26.03
2019-04-16T00:21:16.065Z,25.03
2019-04-16T00:24:08.271Z,25.03
2019-04-16T00:26:39.718Z,25.63
2019-04-16T00:29:09.897Z,24.37
2019-04-16T00:31:40.413Z,25.07
2019-04-16T00:34:13.444Z,25.33
2019-04-16T00:36:42.387Z,25.40
2019-04-16T00:39:13.521Z,24.57
2019-04-16T00:41:43.866Z,25.60
2019-04-16T00:44:14.121Z,24.93
2019-04-16T00:46:44.337Z,24.20
2019-04-16T00:49:14.509Z,25.73
2019-04-16T00:51:44.663Z,26.27
2019-04-16T00:54:14.885Z,25.23
2019-04-16T00:56:46.595Z,25.27
2019-04-16T00:59:16.866Z,25.40
2019-04-16T01:01:47.005Z,25.87
2019-04-16T01:04:17.194Z,26.07
2019-04-16T01:06:48.289Z,25.17
2019-04-16T01:09:18.468Z,25.03
2019-04-16T01:11:48.846Z,25.33
2019-04-16T01:14:19.969Z,24.63
2019-04-16T01:16:50.204Z,24.33
2019-04-16T01:19:20.341Z,25.00
2019-04-16T01:21:50.385Z,24.57
2019-04-16T01:24:21.149Z,24.40
2019-04-16T01:26:55.397Z,24.07
2019-04-16T01:29:25.296Z,24.77
2019-04-16T01:32:23.898Z,25.27
2019-04-16T01:35:09.933Z,24.23
2019-04-16T01:37:59.050Z,25.23
2019-04-16T01:40:34.925Z,23.80
2019-04-16T01:43:05.089Z,24.47
2019-04-16T01:45:35.319Z,25.80
2019-04-16T01:48:08.049Z,24.07
2019-04-16T01:50:37.234Z,25.00
2019-04-16T01:53:07.383Z,24.77
2019-04-16T01:55:37.524Z,24.57
2019-04-16T01:58:07.605Z,25.60
2019-04-16T02:00:39.240Z,24.07
2019-04-16T02:03:09.558Z,23.43
2019-04-16T02:05:42.261Z,23.23
2019-04-16T02:08:13.416Z,23.53
2019-04-16T02:10:43.741Z,23.37
2019-04-16T02:13:14.966Z,22.63
2019-04-16T02:15:45.666Z,22.60
2019-04-16T02:18:15.781Z,21.40
2019-04-16T02:20:46.066Z,20.83
2019-04-16T02:23:17.373Z,18.93
2019-04-16T02:25:48.519Z,19.60
2019-04-16T02:28:21.572Z,18.67
2019-04-16T02:30:51.524Z,18.03
2019-04-16T02:33:21.635Z,18.53
2019-04-16T02:35:51.895Z,18.70
2019-04-16T02:38:23.195Z,19.20
2019-04-16T02:40:53.523Z,20.03
2019-04-16T02:43:23.957Z,18.50
2019-04-16T02:45:58.387Z,19.67
2019-04-16T02:48:25.845Z,20.13
2019-04-16T02:51:05.370Z,20.50
2019-04-16T02:54:05.646Z,19.27
2019-04-16T02:57:02.855Z,19.53
2019-04-16T02:59:36.390Z,20.50
2019-04-16T03:02:31.323Z,20.10
2019-04-16T03:05:09.462Z,19.47
2019-04-16T03:07:39.642Z,18.67
2019-04-16T03:10:13.072Z,20.27
2019-04-16T03:12:41.793Z,20.57
2019-04-16T03:15:11.980Z,19.37
2019-04-16T03:17:46.287Z,19.97
2019-04-16T03:20:17.151Z,20.30
2019-04-16T03:22:47.299Z,19.57
2019-04-16T03:25:17.508Z,18.67
2019-04-16T03:27:47.738Z,19.77
2019-04-16T03:30:17.954Z,20.33
2019-04-16T03:32:49.924Z,18.17
2019-04-16T03:35:25.403Z,17.67
2019-04-16T03:37:51.965Z,17.27
2019-04-16T03:40:25.646Z,18.47
2019-04-16T03:42:58.964Z,17.60
2019-04-16T03:45:25.798Z,17.63
2019-04-16T03:47:55.874Z,17.50
2019-04-16T03:50:31.053Z,18.40
2019-04-16T03:52:58.047Z,18.23
2019-04-16T03:55:28.285Z,17.43
2019-04-16T03:57:58.404Z,17.13
2019-04-16T04:00:28.550Z,18.27
2019-04-16T04:02:58.786Z,17.43
2019-04-16T04:05:28.938Z,17.90
2019-04-16T04:07:59.131Z,16.30
2019-04-16T04:10:31.418Z,17.77
2019-04-16T04:13:04.667Z,16.90
2019-04-16T04:15:33.288Z,18.23
2019-04-16T04:18:03.517Z,17.27
2019-04-16T04:20:33.774Z,17.20
2019-04-16T04:23:04.107Z,16.70
2019-04-16T04:25:36.409Z,16.57
2019-04-16T04:28:06.639Z,17.50
2019-04-16T04:30:36.998Z,17.10
2019-04-16T04:33:08.823Z,15.90
2019-04-16T04:35:39.047Z,17.63
2019-04-16T04:38:09.419Z,16.87
2019-04-16T04:40:44.816Z,16.27
2019-04-16T04:43:11.500Z,16.77
2019-04-16T04:45:41.638Z,18.93
2019-04-16T04:48:12.275Z,18.73
2019-04-16T04:50:42.701Z,18.53
2019-04-16T04:53:17.787Z,19.60
2019-04-16T04:55:44.711Z,19.60
2019-04-16T04:58:14.968Z,18.93
2019-04-16T05:00:45.214Z,19.73
2019-04-16T05:03:26.082Z,20.23
2019-04-16T05:05:57.610Z,17.83
2019-04-16T05:08:28.663Z,16.70
2019-04-16T05:11:02.786Z,16.40
2019-04-16T05:13:31.401Z,16.07
2019-04-16T05:16:02.564Z,16.20
2019-04-16T05:18:33.213Z,13.23
2019-04-16T05:21:03.476Z,13.77
2019-04-16T05:23:33.551Z,14.43
2019-04-16T05:26:04.722Z,16.37
2019-04-16T05:28:35.685Z,17.47
2019-04-16T05:31:05.849Z,14.23
2019-04-16T05:33:37.565Z,16.83
2019-04-16T05:36:07.754Z,12.97
2019-04-16T05:38:37.861Z,14.03
2019-04-16T05:41:13.622Z,20.20
2019-04-16T05:43:39.838Z,12.10
2019-04-16T05:46:10.033Z,11.97
2019-04-16T05:48:40.262Z,14.33
2019-04-16T05:51:10.444Z,12.60
2019-04-16T05:53:42.137Z,20.40
2019-04-16T05:56:23.946Z,14.33
2019-04-16T05:58:53.653Z,17.73
2019-04-16T06:01:48.610Z,12.23
2019-04-16T06:04:18.796Z,9.60
2019-04-16T06:06:48.920Z,8.90
2019-04-16T06:09:19.075Z,11.97
2019-04-16T06:11:49.251Z,8.50
2019-04-16T06:14:28.686Z,15.63
2019-04-16T06:17:19.415Z,11.80
2019-04-16T06:20:01.428Z,18.97
2019-04-16T06:22:37.460Z,8.87
2019-04-16T06:25:25.435Z,13.93
2019-04-16T06:28:15.819Z,35.67
2019-04-16T06:30:57.415Z,9.53
2019-04-16T06:33:34.378Z,8.47
2019-04-16T06:36:26.373Z,13.07
2019-04-16T06:39:26.520Z,10.20
2019-04-16T06:42:14.347Z,11.83
2019-04-16T06:44:48.879Z,8.57
2019-04-16T06:47:41.803Z,7.47
2019-04-16T06:50:32.186Z,7.13
2019-04-16T06:53:08.890Z,8.03
2019-04-16T06:55:49.644Z,9.77
2019-04-16T06:58:50.809Z,7.87
2019-04-16T07:01:22.501Z,6.23
2019-04-16T07:04:00.589Z,8.63
2019-04-16T07:07:01.682Z,7.43
2019-04-16T07:09:46.031Z,6.07
2019-04-16T07:12:21.065Z,5.93
2019-04-16T07:14:51.541Z,5.33
2019-04-16T07:17:22.513Z,5.57
2019-04-16T07:19:52.898Z,4.73
2019-04-16T07:22:23.212Z,4.80
2019-04-16T07:24:57.558Z,5.73
2019-04-16T07:27:53.720Z,5.00
2019-04-16T07:30:38.286Z,6.40
2019-04-16T07:33:14.750Z,4.10
2019-04-16T07:35:50.378Z,4.17
2019-04-16T07:38:35.115Z,5.27
2019-04-16T07:41:21.993Z,4.67
2019-04-16T07:44:14.458Z,3.83
2019-04-16T07:46:56.079Z,4.03
2019-04-16T07:49:48.255Z,4.10
2019-04-16T07:52:49.230Z,4.53
2019-04-16T07:55:45.007Z,3.90
2019-04-16T07:58:15.226Z,3.50
2019-04-16T08:00:46.133Z,3.77
2019-04-16T08:03:16.318Z,4.50
2019-04-16T08:05:46.455Z,4.27
2019-04-16T08:08:17.741Z,3.77
2019-04-16T08:10:48.017Z,4.07
2019-04-16T08:13:19.999Z,4.27
2019-04-16T08:15:50.187Z,3.90
2019-04-16T08:18:20.486Z,3.50
2019-04-16T08:21:01.118Z,3.97
2019-04-16T08:23:43.397Z,4.20
2019-04-16T08:26:13.981Z,4.53
2019-04-16T08:28:44.269Z,4.50
2019-04-16T08:31:18.501Z,3.90
2019-04-16T08:33:48.650Z,4.40
2019-04-16T08:36:18.927Z,4.10
2019-04-16T08:38:49.070Z,4.47
2019-04-16T08:41:21.120Z,3.50
2019-04-16T08:43:51.269Z,3.40
2019-04-16T08:46:21.416Z,6.10
2019-04-16T08:48:54.287Z,3.20
2019-04-16T08:51:30.873Z,3.70
2019-04-16T08:53:56.466Z,3.30
2019-04-16T08:56:26.720Z,4.90
2019-04-16T08:59:00.893Z,3.73
2019-04-16T09:01:33.313Z,3.80
2019-04-16T09:04:06.579Z,3.83
2019-04-16T09:06:37.422Z,3.40
2019-04-16T09:09:27.907Z,3.40
2019-04-16T09:12:01.976Z,3.60
2019-04-16T09:14:34.534Z,2.87
2019-04-16T09:17:30.118Z,3.33
2019-04-16T09:20:06.384Z,3.33
2019-04-16T09:22:48.075Z,2.83
2019-04-16T09:25:30.941Z,2.30
2019-04-16T09:28:25.558Z,2.73
2019-04-16T09:31:23.197Z,2.30
2019-04-16T09:34:05.297Z,2.37
2019-04-16T09:36:49.365Z,2.60
2019-04-16T09:39:40.782Z,2.80
2019-04-16T09:42:11.006Z,2.80
2019-04-16T09:44:41.406Z,26.43
2019-04-16T09:47:11.718Z,3.70
2019-04-16T09:49:41.834Z,3.00
2019-04-16T09:52:11.994Z,3.60
2019-04-16T09:54:44.520Z,3.40
2019-04-16T09:57:13.885Z,3.40
2019-04-16T09:59:57.630Z,3.60
2019-04-16T10:02:30.486Z,4.83
2019-04-16T10:05:00.673Z,2.70
2019-04-16T10:07:30.810Z,3.43
2019-04-16T10:10:01.109Z,3.30
2019-04-16T10:12:31.623Z,2.90
2019-04-16T10:15:01.766Z,3.13
2019-04-16T10:17:32.302Z,6.00
2019-04-16T10:20:02.434Z,3.93
2019-04-16T10:22:32.717Z,2.63
2019-04-16T10:25:10.877Z,2.73
2019-04-16T10:27:43.387Z,3.23
2019-04-16T10:30:31.704Z,3.10
2019-04-16T10:33:03.034Z,2.67
2019-04-16T10:35:33.493Z,2.70
2019-04-16T10:38:13.918Z,2.60
2019-04-16T10:40:48.615Z,2.67
2019-04-16T10:43:46.989Z,5.93
2019-04-16T10:46:28.660Z,3.27
2019-04-16T10:49:07.496Z,3.40
2019-04-16T10:51:55.136Z,2.70
2019-04-16T10:54:46.131Z,3.43
2019-04-16T10:57:30.147Z,3.03
2019-04-16T11:00:37.799Z,3.00
2019-04-16T11:03:18.128Z,3.53
2019-04-16T11:06:00.865Z,2.83
2019-04-16T11:08:31.039Z,3.20
2019-04-16T11:11:01.289Z,3.37
2019-04-16T11:13:37.582Z,3.27
2019-04-16T11:16:15.675Z,3.67
2019-04-16T11:18:46.840Z,3.40
2019-04-16T11:21:17.345Z,4.13
2019-04-16T11:23:47.468Z,4.30
2019-04-16T11:26:19.378Z,4.03
2019-04-16T11:28:49.662Z,3.70
2019-04-16T11:31:22.347Z,5.77
2019-04-16T11:33:52.614Z,4.27
2019-04-16T11:36:22.814Z,3.60
2019-04-16T11:38:53.033Z,4.47
2019-04-16T11:41:23.251Z,4.97
2019-04-16T11:43:53.525Z,3.80
2019-04-16T11:46:24.028Z,3.17
2019-04-16T11:48:54.272Z,3.70
2019-04-16T11:51:25.338Z,3.10
2019-04-16T11:53:55.545Z,3.30
2019-04-16T11:56:25.746Z,3.13
2019-04-16T11:58:57.566Z,3.10
2019-04-16T12:02:01.820Z,3.27
2019-04-16T12:04:59.229Z,3.87
2019-04-16T12:07:39.965Z,3.43
2019-04-16T12:10:36.605Z,3.13
2019-04-16T12:13:24.746Z,3.93
2019-04-16T12:16:14.040Z,3.47
2019-04-16T12:19:06.134Z,4.67
2019-04-16T12:21:53.812Z,3.53
2019-04-16T12:24:44.116Z,3.90
2019-04-16T12:27:32.148Z,3.80
2019-04-16T12:30:18.031Z,4.10
2019-04-16T12:32:55.343Z,4.07
2019-04-16T12:35:45.425Z,4.23
2019-04-16T12:38:23.700Z,4.23
2019-04-16T12:41:15.882Z,4.47
2019-04-16T12:44:05.254Z,3.83
2019-04-16T12:47:09.431Z,4.27
2019-04-16T12:49:57.042Z,4.00
2019-04-16T12:52:58.373Z,4.30
2019-04-16T12:55:56.992Z,3.67
2019-04-16T12:58:43.782Z,4.30
2019-04-16T13:01:33.393Z,5.67
2019-04-16T13:04:25.346Z,3.97
2019-04-16T13:07:06.028Z,4.57
2019-04-16T13:09:48.079Z,3.60
2019-04-16T13:12:36.187Z,4.60
2019-04-16T13:15:22.588Z,4.43
2019-04-16T13:18:08.860Z,4.80
2019-04-16T13:21:16.891Z,4.73
2019-04-16T13:23:55.346Z,4.50
2019-04-16T13:26:31.751Z,4.17
2019-04-16T13:29:05.192Z,4.17
2019-04-16T13:31:36.461Z,6.10
2019-04-16T13:34:07.578Z,6.30
2019-04-16T13:36:38.980Z,6.23
2019-04-16T13:39:40.075Z,7.57
2019-04-16T13:42:08.507Z,7.47
2019-04-16T13:44:42.823Z,14.93
2019-04-16T13:47:13.213Z,5.87
2019-04-16T13:50:04.855Z,20.03
2019-04-16T13:52:35.808Z,6.33
2019-04-16T13:55:25.253Z,5.67
2019-04-16T13:58:13.333Z,5.40
2019-04-16T14:00:47.519Z,8.50
2019-04-16T14:03:20.802Z,9.13
2019-04-16T14:05:52.447Z,7.10
2019-04-16T14:08:22.708Z,7.43
2019-04-16T14:10:52.985Z,10.77
2019-04-16T14:13:23.255Z,10.10
2019-04-16T14:15:53.555Z,7.53
2019-04-16T14:18:23.924Z,10.53
2019-04-16T14:20:54.206Z,9.90
2019-04-16T14:23:24.524Z,7.23
2019-04-16T14:25:54.687Z,9.80
2019-04-16T14:28:24.981Z,6.50
2019-04-16T14:30:55.287Z,7.90
2019-04-16T14:33:44.443Z,9.27
2019-04-16T14:36:15.664Z,8.40
2019-04-16T14:38:49.819Z,9.17
2019-04-16T14:41:19.983Z,9.27
2019-04-16T14:43:55.500Z,8.40
2019-04-16T14:46:28.441Z,9.30
2019-04-16T14:48:58.021Z,8.80
2019-04-16T14:51:28.340Z,9.60
2019-04-16T14:54:29.971Z,9.90
2019-04-16T14:57:02.574Z,10.33
2019-04-16T14:59:45.030Z,10.60
2019-04-16T15:02:29.232Z,12.33
2019-04-16T15:05:15.412Z,10.67
2019-04-16T15:08:10.982Z,11.70
2019-04-16T15:11:15.891Z,12.63
2019-04-16T15:14:26.069Z,17.50
2019-04-16T15:17:06.394Z,12.37
2019-04-16T15:19:49.024Z,10.47
2019-04-16T15:22:41.184Z,11.40
2019-04-16T15:25:21.370Z,10.83
2019-04-16T15:28:06.644Z,10.47
2019-04-16T15:31:10.604Z,11.77
2019-04-16T15:33:50.362Z,14.83
2019-04-16T15:36:26.887Z,12.37
2019-04-16T15:39:09.347Z,13.60
2019-04-16T15:42:17.206Z,13.93
2019-04-16T15:45:08.453Z,12.97
2019-04-16T15:47:49.895Z,12.83
2019-04-16T15:50:35.828Z,17.67
2019-04-16T15:53:25.250Z,15.37
2019-04-16T15:56:17.935Z,13.83
2019-04-16T15:59:10.086Z,11.63
2019-04-16T16:02:02.253Z,10.47
2019-04-16T16:04:54.966Z,10.93
2019-04-16T16:07:28.743Z,10.43
2019-04-16T16:10:18.831Z,12.00
2019-04-16T16:12:50.918Z,10.27
2019-04-16T16:15:21.541Z,10.77
2019-04-16T16:17:52.123Z,10.60
2019-04-16T16:20:22.380Z,14.20
2019-04-16T16:22:54.547Z,12.90
2019-04-16T16:25:25.367Z,11.80
2019-04-16T16:27:56.450Z,13.70
2019-04-16T16:30:27.281Z,13.03
2019-04-16T16:32:58.116Z,11.53
2019-04-16T16:35:28.731Z,11.07
2019-04-16T16:37:59.293Z,10.40
2019-04-16T16:40:30.858Z,10.43
2019-04-16T16:43:06.794Z,10.70
2019-04-16T16:45:50.197Z,10.13
2019-04-16T16:48:22.752Z,21.70
2019-04-16T16:50:53.242Z,14.37
2019-04-16T16:53:44.406Z,13.03
2019-04-16T16:56:30.301Z,14.13
2019-04-16T16:59:21.002Z,14.67
2019-04-16T17:02:10.307Z,13.70
2019-04-16T17:04:44.041Z,15.50
2019-04-16T17:07:17.456Z,15.83
2019-04-16T17:09:46.662Z,16.00
2019-04-16T17:12:17.012Z,17.93
2019-04-16T17:14:47.295Z,17.87
2019-04-16T17:17:17.592Z,18.13
2019-04-16T17:20:06.352Z,20.13
2019-04-16T17:22:36.524Z,20.83
2019-04-16T17:25:10.465Z,20.90
2019-04-16T17:27:50.692Z,24.97
2019-04-16T17:30:10.755Z,27.93
2019-04-16T17:32:41.131Z,32.17
2019-04-16T17:35:15.568Z,29.53
2019-04-16T17:37:43.617Z,28.53
2019-04-16T17:40:26.347Z,29.47
2019-04-16T17:43:00.790Z,29.53
2019-04-16T17:45:46.470Z,27.87
2019-04-16T17:48:24.068Z,29.30
2019-04-16T17:51:06.732Z,29.43
2019-04-16T17:54:00.335Z,25.93
2019-04-16T17:56:56.403Z,21.53
2019-04-16T17:59:32.413Z,25.57
2019-04-16T18:02:33.530Z,24.77
2019-04-16T18:05:23.485Z,28.70
2019-04-16T18:08:23.661Z,33.57
2019-04-16T18:11:00.451Z,33.87
2019-04-16T18:13:44.694Z,35.00
2019-04-16T18:16:21.697Z,38.07
2019-04-16T18:19:05.206Z,35.23
2019-04-16T18:21:49.796Z,31.10
2019-04-16T18:24:51.298Z,26.83
2019-04-16T18:27:31.915Z,24.90
2019-04-16T18:30:25.341Z,28.50
2019-04-16T18:33:15.010Z,29.03
2019-04-16T18:35:51.067Z,29.00
2019-04-16T18:38:43.884Z,30.87
2019-04-16T18:41:33.135Z,27.97
2019-04-16T18:44:22.573Z,25.17
2019-04-16T18:47:05.051Z,27.47
2019-04-16T18:49:36.168Z,28.13
2019-04-16T18:52:07.130Z,23.40
2019-04-16T18:54:37.645Z,19.17
2019-04-16T18:57:08.019Z,17.50
2019-04-16T18:59:39.373Z,16.73
2019-04-16T19:02:10.483Z,16.90
2019-04-16T19:04:41.534Z,18.03
2019-04-16T19:07:12.008Z,20.70
2019-04-16T19:09:45.037Z,20.33
2019-04-16T19:12:16.840Z,18.90
2019-04-16T19:14:47.912Z,18.13
2019-04-16T19:17:18.289Z,17.90
2019-04-16T19:19:48.579Z,17.63
2019-04-16T19:22:19.175Z,19.73
2019-04-16T19:24:49.427Z,23.37
2019-04-16T19:27:19.756Z,26.80
2019-04-16T19:29:50.064Z,25.00
2019-04-16T19:32:20.311Z,23.37
2019-04-16T19:34:51.101Z,19.37
2019-04-16T19:37:24.919Z,20.20
2019-04-16T19:39:55.307Z,19.10
2019-04-16T19:42:28.852Z,17.23
2019-04-16T19:45:00.360Z,18.10
2019-04-16T19:47:31.056Z,18.13
2019-04-16T19:50:01.484Z,20.43
2019-04-16T19:52:31.767Z,22.83
2019-04-16T19:55:02.217Z,28.13
2019-04-16T19:57:33.088Z,32.03
2019-04-16T20:00:03.511Z,31.00
2019-04-16T20:02:35.715Z,31.47
2019-04-16T20:05:07.641Z,27.83
2019-04-16T20:07:38.324Z,28.50
2019-04-16T20:10:08.787Z,29.60
2019-04-16T20:12:39.182Z,25.90
2019-04-16T20:15:09.854Z,24.60
2019-04-16T20:17:40.323Z,25.13
2019-04-16T20:20:10.836Z,23.97
2019-04-16T20:22:41.263Z,26.43
2019-04-16T20:25:11.698Z,26.30
2019-04-16T20:27:42.100Z,26.40
2019-04-16T20:30:14.280Z,27.13
2019-04-16T20:32:44.567Z,30.77
2019-04-16T20:35:17.738Z,28.03
2019-04-16T20:37:47.097Z,27.00
2019-04-16T20:40:17.835Z,28.43
2019-04-16T20:42:49.099Z,27.83
2019-04-16T20:45:19.459Z,26.30
2019-04-16T20:47:49.874Z,24.73
2019-04-16T20:50:20.793Z,23.50
2019-04-16T20:52:51.766Z,26.53
2019-04-16T20:55:22.109Z,24.23
2019-04-16T20:57:55.313Z,21.13
2019-04-16T21:00:32.097Z,21.60
2019-04-16T21:03:03.618Z,22.57
2019-04-16T21:05:35.785Z,19.83
2019-04-16T21:08:06.022Z,19.70
2019-04-16T21:10:37.278Z,20.77
2019-04-16T21:13:07.969Z,19.30
2019-04-16T21:15:38.246Z,19.33
2019-04-16T21:18:11.880Z,18.17
2019-04-16T21:20:40.242Z,19.20
2019-04-16T21:23:10.508Z,17.17
2019-04-16T21:25:42.852Z,16.83
2019-04-16T21:28:31.514Z,16.97
2019-04-16T21:31:06.567Z,16.00
2019-04-16T21:34:04.524Z,15.97
2019-04-16T21:36:48.736Z,14.73
2019-04-16T21:39:23.150Z,14.97
2019-04-16T21:41:53.406Z,14.17
2019-04-16T21:44:23.720Z,14.87
2019-04-16T21:46:58.159Z,13.97
2019-04-16T21:49:38.597Z,13.53
2019-04-16T21:52:09.456Z,13.90
2019-04-16T21:54:40.093Z,14.60
2019-04-16T21:57:13.542Z,13.60
2019-04-16T21:59:42.291Z,14.10
2019-04-16T22:02:22.074Z,13.57
2019-04-16T22:04:52.309Z,13.50
2019-04-16T22:07:24.622Z,15.27
2019-04-16T22:09:55.142Z,15.80
2019-04-16T22:12:25.302Z,14.93
2019-04-16T22:14:56.003Z,14.90
2019-04-16T22:17:26.226Z,14.27
2019-04-16T22:20:01.325Z,16.27
2019-04-16T22:22:28.434Z,15.60
2019-04-16T22:24:59.818Z,16.50
2019-04-16T22:27:30.073Z,16.93
2019-04-16T22:30:00.374Z,17.33
2019-04-16T22:32:31.354Z,16.57
2019-04-16T22:35:02.323Z,16.20
2019-04-16T22:37:32.532Z,16.57
2019-04-16T22:40:13.961Z,16.77
2019-04-16T22:43:15.107Z,15.60
2019-04-16T22:45:53.142Z,15.27
2019-04-16T22:48:23.338Z,16.53
2019-04-16T22:50:53.553Z,15.97
2019-04-16T22:53:23.655Z,15.97
2019-04-16T22:55:56.667Z,18.67
2019-04-16T22:58:27.846Z,21.53
2019-04-16T23:01:02.948Z,22.50
2019-04-16T23:03:33.101Z,21.80
2019-04-16T23:06:05.521Z,20.93
2019-04-16T23:08:35.182Z,18.70
2019-04-16T23:11:05.397Z,18.87
2019-04-16T23:13:35.641Z,16.57
2019-04-16T23:16:05.820Z,16.77
2019-04-16T23:18:35.986Z,18.00
2019-04-16T23:21:10.120Z,18.13
2019-04-16T23:23:38.093Z,16.83
2019-04-16T23:26:08.287Z,17.40
2019-04-16T23:28:39.789Z,18.20
2019-04-16T23:31:10.854Z,17.50
2019-04-16T23:33:41.094Z,17.80
2019-04-16T23:36:15.370Z,19.77
2019-04-16T23:38:43.073Z,20.90
2019-04-16T23:41:16.707Z,21.57
2019-04-16T23:44:05.126Z,20.57
2019-04-16T23:46:56.555Z,19.13
2019-04-16T23:49:45.733Z,18.67
2019-04-16T23:52:43.950Z,18.03
2019-04-16T23:55:33.199Z,18.73
2019-04-16T23:58:13.438Z,18.50
